sensor_id;sensor_type;location;lat;lon;timestamp;pressure;altitude;pressure_sealevel;temperature;humidity
23261;BME280;11799;47.740;-3.390;2023-05-09T00:00:01;101568.81;;;14.15;100.00
23261;BME280;11799;47.740;-3.390;2023-05-09T00:02:26;101573.88;;;14.18;100.00
23261;BME280;11799;47.740;-3.390;2023-05-09T00:04:54;101577.63;;;14.16;100.00
23261;BME280;11799;47.740;-3.390;2023-05-09T00:07:21;101582.81;;;14.17;100.00
23261;BME280;11799;47.740;-3.390;2023-05-09T00:09:46;101576.19;;;14.12;100.00
23261;BME280;11799;47.740;-3.390;2023-05-09T00:12:12;101568.81;;;14.15;100.00
23261;BME280;11799;47.740;-3.390;2023-05-09T00:14:37;101574.38;;;14.12;100.00
23261;BME280;11799;47.740;-3.390;2023-05-09T00:17:05;101579.44;;;14.15;100.00
23261;BME280;11799;47.740;-3.390;2023-05-09T00:19:32;101576.78;;;14.15;100.00
23261;BME280;11799;47.740;-3.390;2023-05-09T00:21:58;101578.59;;;14.15;100.00
23261;BME280;11799;47.740;-3.390;2023-05-09T00:24:23;101571.47;;;14.15;100.00
23261;BME280;11799;47.740;-3.390;2023-05-09T00:26:49;101569.66;;;14.16;100.00
23261;BME280;11799;47.740;-3.390;2023-05-09T00:29:15;101560.84;;;14.15;100.00
23261;BME280;11799;47.740;-3.390;2023-05-09T00:31:40;101553.84;;;14.14;100.00
23261;BME280;11799;47.740;-3.390;2023-05-09T00:34:06;101552.16;;;14.13;100.00
23261;BME280;11799;47.740;-3.390;2023-05-09T00:36:31;101554.09;;;14.11;100.00
23261;BME280;11799;47.740;-3.390;2023-05-09T00:38:57;101558.44;;;14.12;100.00
23261;BME280;11799;47.740;-3.390;2023-05-09T00:41:22;101551.31;;;14.13;100.00
23261;BME280;11799;47.740;-3.390;2023-05-09T00:43:48;101553.97;;;14.13;100.00
23261;BME280;11799;47.740;-3.390;2023-05-09T00:46:13;101548.78;;;14.11;100.00
23261;BME280;11799;47.740;-3.390;2023-05-09T00:48:39;101547.81;;;14.12;100.00
23261;BME280;11799;47.740;-3.390;2023-05-09T00:51:05;101550.59;;;14.11;100.00
23261;BME280;11799;47.740;-3.390;2023-05-09T00:53:31;101543.47;;;14.11;100.00
23261;BME280;11799;47.740;-3.390;2023-05-09T00:55:57;101540.81;;;14.11;100.00
23261;BME280;11799;47.740;-3.390;2023-05-09T00:58:24;101539.13;;;14.10;100.00
23261;BME280;11799;47.740;-3.390;2023-05-09T01:00:50;101535.50;;;14.11;100.00
23261;BME280;11799;47.740;-3.390;2023-05-09T01:03:16;101538.16;;;14.11;100.00
23261;BME280;11799;47.740;-3.390;2023-05-09T01:05:51;101539.97;;;14.11;100.00
23261;BME280;11799;47.740;-3.390;2023-05-09T01:08:36;101531.16;;;14.10;100.00
23261;BME280;11799;47.740;-3.390;2023-05-09T01:22:07;101528.63;;;14.09;100.00
23261;BME280;11799;47.740;-3.390;2023-05-09T01:30:11;101520.91;;;14.06;100.00
23261;BME280;11799;47.740;-3.390;2023-05-09T01:32:38;101508.00;;;14.01;100.00
23261;BME280;11799;47.740;-3.390;2023-05-09T01:35:08;101524.41;;;14.06;100.00
23261;BME280;11799;47.740;-3.390;2023-05-09T01:37:42;101515.47;;;14.07;100.00
23261;BME280;11799;47.740;-3.390;2023-05-09T01:40:14;101520.91;;;14.06;100.00
23261;BME280;11799;47.740;-3.390;2023-05-09T01:43:01;101517.53;;;14.04;100.00
23261;BME280;11799;47.740;-3.390;2023-05-09T01:45:29;101505.34;;;14.01;100.00
23261;BME280;11799;47.740;-3.390;2023-05-09T01:47:56;101508.84;;;14.02;100.00
23261;BME280;11799;47.740;-3.390;2023-05-09T01:50:23;101504.50;;;14.01;100.00
23261;BME280;11799;47.740;-3.390;2023-05-09T01:52:52;101504.38;;;14.02;100.00
23261;BME280;11799;47.740;-3.390;2023-05-09T01:55:21;101501.00;;;14.00;100.00
23261;BME280;11799;47.740;-3.390;2023-05-09T01:57:50;101496.66;;;13.99;100.00
23261;BME280;11799;47.740;-3.390;2023-05-09T02:00:17;101489.66;;;13.98;100.00
23261;BME280;11799;47.740;-3.390;2023-05-09T02:02:43;101496.19;;;13.94;100.00
23261;BME280;11799;47.740;-3.390;2023-05-09T02:05:10;101503.78;;;13.99;100.00
23261;BME280;11799;47.740;-3.390;2023-05-09T02:07:37;101502.94;;;13.98;100.00
23261;BME280;11799;47.740;-3.390;2023-05-09T02:10:06;101504.88;;;13.96;100.00
23261;BME280;11799;47.740;-3.390;2023-05-09T02:12:35;101509.22;;;13.97;100.00
23261;BME280;11799;47.740;-3.390;2023-05-09T02:15:01;101508.50;;;13.95;100.00
23261;BME280;11799;47.740;-3.390;2023-05-09T02:17:29;101507.66;;;13.95;100.00
23261;BME280;11799;47.740;-3.390;2023-05-09T02:19:55;101510.31;;;13.95;100.00
23261;BME280;11799;47.740;-3.390;2023-05-09T02:22:21;101501.75;;;13.91;100.00
23261;BME280;11799;47.740;-3.390;2023-05-09T02:24:47;101516.56;;;13.94;100.00
23261;BME280;11799;47.740;-3.390;2023-05-09T02:27:13;101516.69;;;13.92;100.00
23261;BME280;11799;47.740;-3.390;2023-05-09T02:29:43;101506.22;;;13.91;100.00
23261;BME280;11799;47.740;-3.390;2023-05-09T02:32:14;101505.38;;;13.90;100.00
23261;BME280;11799;47.740;-3.390;2023-05-09T02:34:41;101499.34;;;13.88;100.00
23261;BME280;11799;47.740;-3.390;2023-05-09T02:37:07;101497.81;;;13.85;100.00
23261;BME280;11799;47.740;-3.390;2023-05-09T02:39:34;101497.81;;;13.85;100.00
23261;BME280;11799;47.740;-3.390;2023-05-09T02:42:08;101507.69;;;13.83;100.00
23261;BME280;11799;47.740;-3.390;2023-05-09T02:44:35;101505.88;;;13.84;100.00
23261;BME280;11799;47.740;-3.390;2023-05-09T02:47:02;101511.31;;;13.82;100.00
23261;BME280;11799;47.740;-3.390;2023-05-09T02:49:28;101521.22;;;13.80;100.00
23261;BME280;11799;47.740;-3.390;2023-05-09T02:51:53;101528.22;;;13.81;100.00
23261;BME280;11799;47.740;-3.390;2023-05-09T02:54:19;101531.00;;;13.80;100.00
23261;BME280;11799;47.740;-3.390;2023-05-09T02:56:46;101524.72;;;13.81;100.00
23261;BME280;11799;47.740;-3.390;2023-05-09T02:59:11;101524.00;;;13.79;100.00
23261;BME280;11799;47.740;-3.390;2023-05-09T03:01:37;101517.00;;;13.78;100.00
23261;BME280;11799;47.740;-3.390;2023-05-09T03:04:03;101511.09;;;13.74;100.00
23261;BME280;11799;47.740;-3.390;2023-05-09T03:06:29;101510.97;;;13.76;100.00
23261;BME280;11799;47.740;-3.390;2023-05-09T03:08:55;101490.69;;;13.75;100.00
23261;BME280;11799;47.740;-3.390;2023-05-09T03:11:22;101491.66;;;13.74;100.00
23261;BME280;11799;47.740;-3.390;2023-05-09T03:13:48;101487.44;;;13.71;100.00
23261;BME280;11799;47.740;-3.390;2023-05-09T03:16:16;101495.41;;;13.71;100.00
23261;BME280;11799;47.740;-3.390;2023-05-09T03:18:42;101500.84;;;13.70;100.00
23261;BME280;11799;47.740;-3.390;2023-05-09T03:21:08;101505.31;;;13.69;100.00
23261;BME280;11799;47.740;-3.390;2023-05-09T03:23:36;101513.25;;;13.69;100.00
23261;BME280;11799;47.740;-3.390;2023-05-09T03:26:01;101517.84;;;13.67;100.00
23261;BME280;11799;47.740;-3.390;2023-05-09T03:28:27;101514.34;;;13.67;100.00
23261;BME280;11799;47.740;-3.390;2023-05-09T03:30:56;101525.94;;;13.66;100.00
23261;BME280;11799;47.740;-3.390;2023-05-09T03:33:24;101518.94;;;13.65;100.00
23261;BME280;11799;47.740;-3.390;2023-05-09T03:35:51;101518.09;;;13.64;100.00
23261;BME280;11799;47.740;-3.390;2023-05-09T03:38:16;101520.16;;;13.61;100.00
23261;BME280;11799;47.740;-3.390;2023-05-09T03:40:42;101513.03;;;13.61;100.00
23261;BME280;11799;47.740;-3.390;2023-05-09T03:43:09;101510.38;;;13.61;100.00
23261;BME280;11799;47.740;-3.390;2023-05-09T03:45:35;101512.06;;;13.62;100.00
23261;BME280;11799;47.740;-3.390;2023-05-09T03:48:03;101507.72;;;13.61;100.00
23261;BME280;11799;47.740;-3.390;2023-05-09T03:50:34;101512.31;;;13.59;100.00
23261;BME280;11799;47.740;-3.390;2023-05-09T03:53:00;101522.91;;;13.59;100.00
23261;BME280;11799;47.740;-3.390;2023-05-09T03:55:26;101526.53;;;13.58;100.00
23261;BME280;11799;47.740;-3.390;2023-05-09T03:57:52;101525.09;;;13.54;100.00
23261;BME280;11799;47.740;-3.390;2023-05-09T04:00:18;101520.03;;;13.51;100.00
23261;BME280;11799;47.740;-3.390;2023-05-09T04:02:51;101515.69;;;13.50;100.00
23261;BME280;11799;47.740;-3.390;2023-05-09T04:05:26;101500.59;;;13.50;100.00
23261;BME280;11799;47.740;-3.390;2023-05-09T04:07:53;101502.41;;;13.50;100.00
23261;BME280;11799;47.740;-3.390;2023-05-09T04:10:18;101502.53;;;13.48;100.00
23261;BME280;11799;47.740;-3.390;2023-05-09T04:12:44;101502.66;;;13.47;100.00
23261;BME280;11799;47.740;-3.390;2023-05-09T04:15:10;101490.34;;;13.46;100.00
23261;BME280;11799;47.740;-3.390;2023-05-09T04:17:36;101483.38;;;13.45;100.00
23261;BME280;11799;47.740;-3.390;2023-05-09T04:20:01;101481.69;;;13.44;100.00
23261;BME280;11799;47.740;-3.390;2023-05-09T04:22:27;101472.16;;;13.41;100.00
23261;BME280;11799;47.740;-3.390;2023-05-09T04:24:53;101476.63;;;13.41;100.00
23261;BME280;11799;47.740;-3.390;2023-05-09T04:27:18;101481.19;;;13.39;100.00
23261;BME280;11799;47.740;-3.390;2023-05-09T04:29:44;101478.41;;;13.40;100.00
23261;BME280;11799;47.740;-3.390;2023-05-09T04:32:11;101472.50;;;13.37;100.00
23261;BME280;11799;47.740;-3.390;2023-05-09T04:34:37;101470.59;;;13.39;100.00
23261;BME280;11799;47.740;-3.390;2023-05-09T04:37:09;101477.69;;;13.38;100.00
23261;BME280;11799;47.740;-3.390;2023-05-09T04:39:35;101476.97;;;13.36;100.00
23261;BME280;11799;47.740;-3.390;2023-05-09T04:42:10;101472.63;;;13.35;100.00
23261;BME280;11799;47.740;-3.390;2023-05-09T04:44:36;101485.16;;;13.33;100.00
23261;BME280;11799;47.740;-3.390;2023-05-09T04:47:01;101472.75;;;13.34;100.00
23261;BME280;11799;47.740;-3.390;2023-05-09T04:49:27;101474.56;;;13.33;100.00
23261;BME280;11799;47.740;-3.390;2023-05-09T04:51:53;101483.38;;;13.34;100.00
23261;BME280;11799;47.740;-3.390;2023-05-09T04:54:19;101479.75;;;13.35;100.00
23261;BME280;11799;47.740;-3.390;2023-05-09T04:56:44;101482.53;;;13.33;100.00
23261;BME280;11799;47.740;-3.390;2023-05-09T04:59:10;101473.13;;;13.29;100.00
23261;BME280;11799;47.740;-3.390;2023-05-09T05:01:36;101472.03;;;13.32;100.00
23261;BME280;11799;47.740;-3.390;2023-05-09T05:04:02;101472.88;;;13.32;100.00
23261;BME280;11799;47.740;-3.390;2023-05-09T05:06:30;101484.44;;;13.31;100.00
23261;BME280;11799;47.740;-3.390;2023-05-09T05:08:56;101488.06;;;13.30;100.00
23261;BME280;11799;47.740;-3.390;2023-05-09T05:11:22;101484.44;;;13.31;100.00
23261;BME280;11799;47.740;-3.390;2023-05-09T05:13:48;101481.56;;;13.34;100.00
23261;BME280;11799;47.740;-3.390;2023-05-09T05:16:15;101488.78;;;13.32;100.00
23261;BME280;11799;47.740;-3.390;2023-05-09T05:18:40;101482.53;;;13.33;100.00
23261;BME280;11799;47.740;-3.390;2023-05-09T05:21:06;101478.19;;;13.32;100.00
23261;BME280;11799;47.740;-3.390;2023-05-09T05:23:33;101474.81;;;13.30;100.00
23261;BME280;11799;47.740;-3.390;2023-05-09T05:25:58;101476.38;;;13.33;100.00
23261;BME280;11799;47.740;-3.390;2023-05-09T05:28:25;101469.25;;;13.33;100.00
23261;BME280;11799;47.740;-3.390;2023-05-09T05:30:51;101471.91;;;13.33;100.00
23261;BME280;11799;47.740;-3.390;2023-05-09T05:33:17;101470.94;;;13.34;100.00
23261;BME280;11799;47.740;-3.390;2023-05-09T05:35:42;101466.59;;;13.33;100.00
23261;BME280;11799;47.740;-3.390;2023-05-09T05:38:08;101456.13;;;13.32;100.00
23261;BME280;11799;47.740;-3.390;2023-05-09T05:40:34;101463.09;;;13.33;100.00
23261;BME280;11799;47.740;-3.390;2023-05-09T05:43:02;101466.38;;;13.36;100.00
23261;BME280;11799;47.740;-3.390;2023-05-09T05:45:29;101469.84;;;13.37;100.00
23261;BME280;11799;47.740;-3.390;2023-05-09T05:47:56;101471.44;;;13.39;100.00
23261;BME280;11799;47.740;-3.390;2023-05-09T05:50:22;101479.16;;;13.42;100.00
23261;BME280;11799;47.740;-3.390;2023-05-09T05:52:48;101481.69;;;13.44;100.00
23261;BME280;11799;47.740;-3.390;2023-05-09T05:55:15;101481.56;;;13.45;100.00
23261;BME280;11799;47.740;-3.390;2023-05-09T05:57:41;101478.78;;;13.47;100.00
23261;BME280;11799;47.740;-3.390;2023-05-09T06:00:09;101485.66;;;13.49;100.00
23261;BME280;11799;47.740;-3.390;2023-05-09T06:02:43;101483.00;;;13.49;100.00
23261;BME280;11799;47.740;-3.390;2023-05-09T06:05:12;101477.56;;;13.51;100.00
23261;BME280;11799;47.740;-3.390;2023-05-09T06:07:38;101476.47;;;13.53;100.00
23261;BME280;11799;47.740;-3.390;2023-05-09T06:10:08;101473.47;;;13.58;100.00
23261;BME280;11799;47.740;-3.390;2023-05-09T06:12:34;101472.38;;;13.61;100.00
23261;BME280;11799;47.740;-3.390;2023-05-09T06:15:00;101472.97;;;13.64;100.00
23261;BME280;11799;47.740;-3.390;2023-05-09T06:17:26;101474.53;;;13.67;100.00
23261;BME280;11799;47.740;-3.390;2023-05-09T06:19:54;101480.44;;;13.70;100.00
23261;BME280;11799;47.740;-3.390;2023-05-09T06:22:19;101482.00;;;13.73;100.00
23261;BME280;11799;47.740;-3.390;2023-05-09T06:24:45;101479.22;;;13.74;100.00
23261;BME280;11799;47.740;-3.390;2023-05-09T06:27:11;101481.53;;;13.79;100.00
23261;BME280;11799;47.740;-3.390;2023-05-09T06:29:36;101481.72;;;13.87;100.00
23261;BME280;11799;47.740;-3.390;2023-05-09T06:32:02;101481.09;;;13.95;100.00
23261;BME280;11799;47.740;-3.390;2023-05-09T06:34:28;101485.06;;;14.00;100.00
23261;BME280;11799;47.740;-3.390;2023-05-09T06:36:53;101491.94;;;14.03;100.00
23261;BME280;11799;47.740;-3.390;2023-05-09T06:39:19;101497.13;;;14.04;100.00
23261;BME280;11799;47.740;-3.390;2023-05-09T06:41:44;101503.16;;;14.06;100.00
23261;BME280;11799;47.740;-3.390;2023-05-09T06:44:10;101501.22;;;14.08;100.00
23261;BME280;11799;47.740;-3.390;2023-05-09T06:46:35;101508.47;;;14.06;100.00
23261;BME280;11799;47.740;-3.390;2023-05-09T06:49:01;101510.88;;;14.09;100.00
23261;BME280;11799;47.740;-3.390;2023-05-09T06:51:27;101503.75;;;14.10;100.00
23261;BME280;11799;47.740;-3.390;2023-05-09T06:53:53;101506.66;;;14.07;100.00
23261;BME280;11799;47.740;-3.390;2023-05-09T06:56:18;101508.34;;;14.08;100.00
23261;BME280;11799;47.740;-3.390;2023-05-09T06:58:45;101508.22;;;14.09;100.00
23261;BME280;11799;47.740;-3.390;2023-05-09T07:01:11;101504.84;;;14.07;100.00
23261;BME280;11799;47.740;-3.390;2023-05-09T07:03:37;101509.44;;;14.05;100.00
23261;BME280;11799;47.740;-3.390;2023-05-09T07:06:02;101510.75;;;14.11;100.00
23261;BME280;11799;47.740;-3.390;2023-05-09T07:08:28;101501.94;;;14.10;100.00
23261;BME280;11799;47.740;-3.390;2023-05-09T07:10:53;101500.59;;;14.16;100.00
23261;BME280;11799;47.740;-3.390;2023-05-09T07:13:19;101502.25;;;14.28;100.00
23261;BME280;11799;47.740;-3.390;2023-05-09T07:15:45;101501.69;;;14.45;100.00
23261;BME280;11799;47.740;-3.390;2023-05-09T07:18:10;101504.50;;;14.65;100.00
23261;BME280;11799;47.740;-3.390;2023-05-09T07:20:36;101494.91;;;14.73;100.00
23261;BME280;11799;47.740;-3.390;2023-05-09T07:23:02;101486.56;;;14.78;100.00
23261;BME280;11799;47.740;-3.390;2023-05-09T07:25:28;101501.47;;;14.90;100.00
23261;BME280;11799;47.740;-3.390;2023-05-09T07:27:54;101496.88;;;14.92;100.00
23261;BME280;11799;47.740;-3.390;2023-05-09T07:30:19;101491.41;;;14.94;100.00
23261;BME280;11799;47.740;-3.390;2023-05-09T07:32:45;101498.16;;;14.98;100.00
23261;BME280;11799;47.740;-3.390;2023-05-09T07:35:10;101485.44;;;15.01;100.00
23261;BME280;11799;47.740;-3.390;2023-05-09T07:37:36;101490.75;;;15.01;100.00
23261;BME280;11799;47.740;-3.390;2023-05-09T07:40:02;101488.50;;;14.97;100.00
23261;BME280;11799;47.740;-3.390;2023-05-09T07:42:30;101494.53;;;14.99;100.00
23261;BME280;11799;47.740;-3.390;2023-05-09T07:44:57;101489.06;;;15.00;100.00
23261;BME280;11799;47.740;-3.390;2023-05-09T07:47:23;101486.84;;;15.05;100.00
23261;BME280;11799;47.740;-3.390;2023-05-09T07:49:49;101486.84;;;15.05;100.00
23261;BME280;11799;47.740;-3.390;2023-05-09T07:52:16;101495.78;;;15.04;100.00
23261;BME280;11799;47.740;-3.390;2023-05-09T07:54:42;101481.22;;;14.99;100.00
23261;BME280;11799;47.740;-3.390;2023-05-09T07:57:08;101490.31;;;14.96;100.00
23261;BME280;11799;47.740;-3.390;2023-05-09T07:59:34;101489.22;;;14.99;100.00
23261;BME280;11799;47.740;-3.390;2023-05-09T08:01:59;101498.16;;;14.98;100.00
23261;BME280;11799;47.740;-3.390;2023-05-09T08:04:25;101490.06;;;14.99;100.00
23261;BME280;11799;47.740;-3.390;2023-05-09T08:06:51;101494.09;;;15.03;100.00
23261;BME280;11799;47.740;-3.390;2023-05-09T08:09:16;101496.81;;;15.13;100.00
23261;BME280;11799;47.740;-3.390;2023-05-09T08:11:43;101495.50;;;15.28;100.00
23261;BME280;11799;47.740;-3.390;2023-05-09T08:14:09;101491.28;;;15.26;100.00
23261;BME280;11799;47.740;-3.390;2023-05-09T08:16:34;101493.00;;;15.36;100.00
23261;BME280;11799;47.740;-3.390;2023-05-09T08:19:00;101480.09;;;15.32;100.00
23261;BME280;11799;47.740;-3.390;2023-05-09T08:21:26;101496.50;;;15.37;100.00
23261;BME280;11799;47.740;-3.390;2023-05-09T08:23:51;101501.44;;;15.41;100.00
23261;BME280;11799;47.740;-3.390;2023-05-09T08:26:17;101494.56;;;15.39;100.00
23261;BME280;11799;47.740;-3.390;2023-05-09T08:28:43;101494.44;;;15.40;100.00
23261;BME280;11799;47.740;-3.390;2023-05-09T08:31:09;101483.78;;;15.40;100.00
23261;BME280;11799;47.740;-3.390;2023-05-09T08:33:34;101474.69;;;15.43;100.00
23261;BME280;11799;47.740;-3.390;2023-05-09T08:36:00;101470.06;;;15.45;100.00
23261;BME280;11799;47.740;-3.390;2023-05-09T08:38:26;101472.59;;;15.46;100.00
23261;BME280;11799;47.740;-3.390;2023-05-09T08:40:58;101468.97;;;15.47;100.00
23261;BME280;11799;47.740;-3.390;2023-05-09T08:43:24;101465.06;;;15.51;100.00
23261;BME280;11799;47.740;-3.390;2023-05-09T08:45:58;101466.91;;;15.61;100.00
23261;BME280;11799;47.740;-3.390;2023-05-09T08:48:25;101473.66;;;15.65;100.00
23261;BME280;11799;47.740;-3.390;2023-05-09T08:50:52;101470.72;;;15.68;100.00
23261;BME280;11799;47.740;-3.390;2023-05-09T08:53:19;101462.59;;;15.69;100.00
23261;BME280;11799;47.740;-3.390;2023-05-09T08:55:46;101473.25;;;15.69;100.00
23261;BME280;11799;47.740;-3.390;2023-05-09T08:58:12;101471.81;;;15.65;100.00
23261;BME280;11799;47.740;-3.390;2023-05-09T09:00:40;101476.16;;;15.66;100.00
23261;BME280;11799;47.740;-3.390;2023-05-09T09:03:06;101482.59;;;15.64;100.00
23261;BME280;11799;47.740;-3.390;2023-05-09T09:05:36;101486.81;;;15.57;100.00
23261;BME280;11799;47.740;-3.390;2023-05-09T09:08:03;101476.28;;;15.55;100.00
23261;BME280;11799;47.740;-3.390;2023-05-09T09:10:32;101480.72;;;15.45;100.00
23261;BME280;11799;47.740;-3.390;2023-05-09T09:12:59;101474.13;;;15.39;100.00
23261;BME280;11799;47.740;-3.390;2023-05-09T09:15:27;101477.84;;;15.27;100.00
23261;BME280;11799;47.740;-3.390;2023-05-09T09:17:54;101485.97;;;15.26;100.00
23261;BME280;11799;47.740;-3.390;2023-05-09T09:20:24;101486.22;;;15.23;100.00
23261;BME280;11799;47.740;-3.390;2023-05-09T09:22:54;101479.34;;;15.20;100.00
23261;BME280;11799;47.740;-3.390;2023-05-09T09:25:22;101480.59;;;15.16;100.00
23261;BME280;11799;47.740;-3.390;2023-05-09T09:27:48;101477.34;;;15.12;100.00
23261;BME280;11799;47.740;-3.390;2023-05-09T09:30:14;101478.31;;;15.11;100.00
23261;BME280;11799;47.740;-3.390;2023-05-09T09:32:39;101479.16;;;15.12;100.00
23261;BME280;11799;47.740;-3.390;2023-05-09T09:35:06;101476.78;;;15.09;100.00
23261;BME280;11799;47.740;-3.390;2023-05-09T09:37:33;101476.06;;;15.07;100.00
23261;BME280;11799;47.740;-3.390;2023-05-09T09:40:00;101469.75;;;15.08;100.00
23261;BME280;11799;47.740;-3.390;2023-05-09T09:42:26;101472.44;;;15.08;100.00
23261;BME280;11799;47.740;-3.390;2023-05-09T09:44:56;101466.84;;;15.11;100.00
23261;BME280;11799;47.740;-3.390;2023-05-09T09:47:32;101475.00;;;15.19;100.00
23261;BME280;11799;47.740;-3.390;2023-05-09T09:50:08;101465.25;;;15.29;100.00
23261;BME280;11799;47.740;-3.390;2023-05-09T09:52:34;101467.38;;;15.35;100.00
23261;BME280;11799;47.740;-3.390;2023-05-09T09:55:00;101464.19;;;15.41;100.00
23261;BME280;11799;47.740;-3.390;2023-05-09T09:57:38;101456.06;;;15.43;100.00
23261;BME280;11799;47.740;-3.390;2023-05-09T10:00:06;101442.22;;;15.49;100.00
23261;BME280;11799;47.740;-3.390;2023-05-09T10:02:32;101457.47;;;15.47;100.00
23261;BME280;11799;47.740;-3.390;2023-05-09T10:05:07;101450.19;;;15.49;100.00
23261;BME280;11799;47.740;-3.390;2023-05-09T10:07:34;101449.94;;;15.52;100.00
23261;BME280;11799;47.740;-3.390;2023-05-09T10:10:00;101446.16;;;15.55;100.00
23261;BME280;11799;47.740;-3.390;2023-05-09T10:12:35;101438.78;;;15.58;100.00
23261;BME280;11799;47.740;-3.390;2023-05-09T10:15:06;101435.13;;;15.59;100.00
23261;BME280;11799;47.740;-3.390;2023-05-09T10:17:33;101440.16;;;15.62;100.00
23261;BME280;11799;47.740;-3.390;2023-05-09T10:20:04;101443.66;;;15.63;100.00
23261;BME280;11799;47.740;-3.390;2023-05-09T10:22:31;101439.59;;;15.59;100.00
23261;BME280;11799;47.740;-3.390;2023-05-09T10:25:04;101446.63;;;15.60;100.00
23261;BME280;11799;47.740;-3.390;2023-05-09T10:27:34;101439.44;;;15.60;100.00
23261;BME280;11799;47.740;-3.390;2023-05-09T10:30:08;101435.66;;;15.63;100.00
23261;BME280;11799;47.740;-3.390;2023-05-09T10:33:08;101436.66;;;15.62;100.00
23261;BME280;11799;47.740;-3.390;2023-05-09T10:35:44;101443.38;;;15.66;100.00
23261;BME280;11799;47.740;-3.390;2023-05-09T10:38:11;101432.47;;;15.69;100.00
23261;BME280;11799;47.740;-3.390;2023-05-09T10:40:37;101442.69;;;15.73;100.00
23261;BME280;11799;47.740;-3.390;2023-05-09T10:43:04;101430.63;;;15.69;100.00
23261;BME280;11799;47.740;-3.390;2023-05-09T10:45:32;101431.47;;;15.70;100.00
23261;BME280;11799;47.740;-3.390;2023-05-09T10:47:59;101426.00;;;15.71;100.00
23261;BME280;11799;47.740;-3.390;2023-05-09T10:50:27;101421.66;;;15.70;100.00
23261;BME280;11799;47.740;-3.390;2023-05-09T10:55:47;101412.44;;;15.84;100.00
23261;BME280;11799;47.740;-3.390;2023-05-09T11:00:47;101401.78;;;15.84;100.00
23261;BME280;11799;47.740;-3.390;2023-05-09T11:03:13;101415.94;;;15.84;100.00
23261;BME280;11799;47.740;-3.390;2023-05-09T11:05:39;101411.59;;;15.83;100.00
23261;BME280;11799;47.740;-3.390;2023-05-09T11:08:17;101414.53;;;15.80;100.00
23261;BME280;11799;47.740;-3.390;2023-05-09T11:10:43;101407.81;;;15.86;100.00
23261;BME280;11799;47.740;-3.390;2023-05-09T11:13:09;101403.91;;;16.00;100.00
23261;BME280;11799;47.740;-3.390;2023-05-09T11:15:35;101404.56;;;16.21;100.00
23261;BME280;11799;47.740;-3.390;2023-05-09T11:18:14;101389.53;;;16.39;100.00
23261;BME280;11799;47.740;-3.390;2023-05-09T11:20:44;101396.66;;;16.58;100.00
23261;BME280;11799;47.740;-3.390;2023-05-09T11:23:10;101400.47;;;16.65;100.00
23261;BME280;11799;47.740;-3.390;2023-05-09T11:25:38;101399.19;;;16.69;100.00
23261;BME280;11799;47.740;-3.390;2023-05-09T11:28:04;101406.16;;;16.80;100.00
23261;BME280;11799;47.740;-3.390;2023-05-09T11:30:42;101398.81;;;16.92;100.00
23261;BME280;11799;47.740;-3.390;2023-05-09T11:33:26;101401.06;;;16.96;100.00
23261;BME280;11799;47.740;-3.390;2023-05-09T11:38:41;101399.50;;;17.31;100.00
23261;BME280;11799;47.740;-3.390;2023-05-09T11:41:07;101411.09;;;17.39;100.00
23261;BME280;11799;47.740;-3.390;2023-05-09T11:43:35;101402.94;;;17.41;100.00
23261;BME280;11799;47.740;-3.390;2023-05-09T11:46:01;101408.38;;;17.49;100.00
23261;BME280;11799;47.740;-3.390;2023-05-09T11:48:27;101405.09;;;17.55;100.00
23261;BME280;11799;47.740;-3.390;2023-05-09T11:50:53;101401.09;;;17.69;100.00
23261;BME280;11799;47.740;-3.390;2023-05-09T11:53:18;101412.72;;;17.77;100.00
23261;BME280;11799;47.740;-3.390;2023-05-09T11:55:44;101406.31;;;17.88;100.00
23261;BME280;11799;47.740;-3.390;2023-05-09T11:58:09;101402.00;;;17.95;100.00
23261;BME280;11799;47.740;-3.390;2023-05-09T12:00:43;101406.13;;;18.07;100.00
23261;BME280;11799;47.740;-3.390;2023-05-09T12:03:09;101409.84;;;18.32;100.00
23261;BME280;11799;47.740;-3.390;2023-05-09T12:05:35;101404.34;;;18.34;100.00
23261;BME280;11799;47.740;-3.390;2023-05-09T12:08:05;101414.94;;;18.61;100.00
23261;BME280;11799;47.740;-3.390;2023-05-09T12:10:31;101408.63;;;18.70;100.00
23261;BME280;11799;47.740;-3.390;2023-05-09T12:13:00;101410.72;;;18.85;100.00
23261;BME280;11799;47.740;-3.390;2023-05-09T12:15:26;101409.88;;;19.18;100.00
23261;BME280;11799;47.740;-3.390;2023-05-09T12:18:05;101403.47;;;19.11;100.00
23261;BME280;11799;47.740;-3.390;2023-05-09T12:23:08;101397.38;;;19.35;100.00
23261;BME280;11799;47.740;-3.390;2023-05-09T12:25:35;101401.84;;;19.52;100.00
23261;BME280;11799;47.740;-3.390;2023-05-09T12:28:00;101400.00;;;19.53;100.00
23261;BME280;11799;47.740;-3.390;2023-05-09T12:30:26;101396.91;;;19.39;100.00
23261;BME280;11799;47.740;-3.390;2023-05-09T12:32:52;101409.44;;;19.31;100.00
23261;BME280;11799;47.740;-3.390;2023-05-09T12:35:19;101404.25;;;19.37;100.00
23261;BME280;11799;47.740;-3.390;2023-05-09T12:37:57;101408.94;;;19.35;100.00
23261;BME280;11799;47.740;-3.390;2023-05-09T12:40:23;101399.22;;;19.34;100.00
23261;BME280;11799;47.740;-3.390;2023-05-09T12:42:49;101401.94;;;19.42;100.00
23261;BME280;11799;47.740;-3.390;2023-05-09T12:45:18;101393.06;;;19.42;100.00
23261;BME280;11799;47.740;-3.390;2023-05-09T12:47:44;101398.56;;;19.32;100.00
23261;BME280;11799;47.740;-3.390;2023-05-09T12:50:10;101404.25;;;19.37;100.00
23261;BME280;11799;47.740;-3.390;2023-05-09T12:52:41;101400.06;;;19.35;100.00
23261;BME280;11799;47.740;-3.390;2023-05-09T12:55:12;101399.22;;;19.34;100.00
23261;BME280;11799;47.740;-3.390;2023-05-09T12:57:39;101414.44;;;19.26;100.00